Alplaus, New York
Current Conditions -  °F | °C
As of 9:51 PM on Friday 24 Oct 2014 (Local Time) from KALB Reporting Station
Moderate Fog Moderate Fog  
Wind Chill:   Ceiling: 4500
Heat Index:   Visibility: 10mi
Dew Point:   Wind: 6mph
Humidity: 90%   Direction: 340°NNW
Pressure: 29.87"   Gusts: NA
Location:  42.86°N, 73.9°W
Report Text: KALB 250151Z 34005KT 10SM VCFG OVC045 08/07 A2987 RMK AO2 SLP115 VCFG S-SW AND NW T00830067 $
Loading
Personal Weather Stations






























Interactive Weather Map
Tropical Storm Tracking
New forecast layout! Learn more

10-Day Weather Forecast

Advertisements
Track Severe Weather on mobile